Estación de San Fernando

Ultimos registro cada 15 minutos 87
Estación Fecha / Hora Temperatura Humedad Lluvia Velocidad Dirección Radiación Presion
87 San Fernando 09-05-2026 21:30 10,5 77 0 0 170 0 1015,3
86 San Fernando 09-05-2026 21:15 10,5 77 0 0 170 0 1015,3
85 San Fernando 09-05-2026 21:00 10,4 77 0 0,9 204 0 1015,3
84 San Fernando 09-05-2026 20:45 10 79 0 1,3 218 0 1015,3
83 San Fernando 09-05-2026 20:30 9,8 79 0 0,4 231 0 1015,4
82 San Fernando 09-05-2026 20:15 9,9 78 0 0 214 0 1015,2
81 San Fernando 09-05-2026 20:00 10,1 77 0 0 214 0 1015,2
80 San Fernando 09-05-2026 19:45 10,3 76 0 0 214 0 1015,2
79 San Fernando 09-05-2026 19:30 10,8 74 0 0 214 0 1015
78 San Fernando 09-05-2026 19:15 11,4 72 0 0 214 0 1015,1
77 San Fernando 09-05-2026 19:00 11,9 70 0 0 214 0 1015
76 San Fernando 09-05-2026 18:45 12,4 69 0 0 214 0 1015,1
75 San Fernando 09-05-2026 18:30 12,8 68 0 0 214 0 1014,9
74 San Fernando 09-05-2026 18:15 13,2 67 0 0,4 198 0 1014,7
73 San Fernando 09-05-2026 18:00 13,6 66 0 0,9 186 0 1014,7
72 San Fernando 09-05-2026 17:45 14 64 0 1,3 224 7 1014,7
71 San Fernando 09-05-2026 17:30 14,5 62 0 2,2 209 11 1014,6
70 San Fernando 09-05-2026 17:15 14,9 61 0 0,9 260 16 1014,7
69 San Fernando 09-05-2026 17:00 15,4 58 0 4 190 18 1015,1
68 San Fernando 09-05-2026 16:45 15,8 57 0 0,9 185 19 1014,8
67 San Fernando 09-05-2026 16:30 16,3 56 0 0 180 23 1014,4
66 San Fernando 09-05-2026 16:15 16,8 55 0 1,3 219 23 1014,3
65 San Fernando 09-05-2026 16:00 17,3 54 0 1,3 172 26 1014,3
64 San Fernando 09-05-2026 15:45 17,4 54 0 0,9 241 290 1014,4
63 San Fernando 09-05-2026 15:30 17,2 54 0 0,9 191 325 1014,5
62 San Fernando 09-05-2026 15:15 17,2 54 0 0,9 204 355 1014,6
61 San Fernando 09-05-2026 15:00 17 55 0 1,3 218 381 1014,6
60 San Fernando 09-05-2026 14:45 17,1 53 0 0,9 183 408 1014,6
59 San Fernando 09-05-2026 14:30 17,1 55 0 0,9 251 429 1014,5
58 San Fernando 09-05-2026 14:15 16,9 56 0 1,3 204 446 1014,6
57 San Fernando 09-05-2026 14:00 16,4 63 0 0,4 269 469 1014,8
56 San Fernando 09-05-2026 13:45 15,9 61 0 0,4 164 485 1014,9
55 San Fernando 09-05-2026 13:30 15,9 66 0 0,9 249 494 1015,1
54 San Fernando 09-05-2026 13:15 15,2 66 0 1,3 220 501 1015,1
53 San Fernando 09-05-2026 13:00 14,5 67 0 1,3 180 513 1015,4
52 San Fernando 09-05-2026 12:45 13,9 69 0 2,7 209 515 1015,6
51 San Fernando 09-05-2026 12:30 13,3 71 0 0,9 251 508 1015,8
50 San Fernando 09-05-2026 12:15 12,9 73 0 0,9 231 506 1016,1
49 San Fernando 09-05-2026 12:00 12,5 74 0 0,4 204 503 1016,2
48 San Fernando 09-05-2026 11:45 12,3 75 0 0,4 264 494 1016,2
47 San Fernando 09-05-2026 11:30 11,8 79 0 0,9 248 475 1016,2
46 San Fernando 09-05-2026 11:15 11,5 79 0 0,4 204 452 1016,1
45 San Fernando 09-05-2026 11:00 11,2 79 0 0 197 443 1016,2
44 San Fernando 09-05-2026 10:45 10,7 82 0 0,4 209 422 1016,3
43 San Fernando 09-05-2026 10:30 10,3 82 0 0,9 197 385 1016,6
42 San Fernando 09-05-2026 10:15 9,5 84 0 0 245 367 1016,8
41 San Fernando 09-05-2026 10:00 9,1 84 0 0 249 135 1016,8
40 San Fernando 09-05-2026 09:45 8,8 87 0 0,9 185 185 1016,9
39 San Fernando 09-05-2026 09:30 8,4 87 0 0 222 121 1016,8
38 San Fernando 09-05-2026 09:15 8,3 87 0 0 262 105 1016,9
37 San Fernando 09-05-2026 09:00 8,1 88 0 0,4 274 81 1017,1
36 San Fernando 09-05-2026 08:45 7,9 88 0 0,4 241 70 1017,2
35 San Fernando 09-05-2026 08:30 7,9 89 0 0 291 42 1017,2
34 San Fernando 09-05-2026 08:15 7,9 89 0 0 261 21 1017,1
33 San Fernando 09-05-2026 08:00 7,9 89 0 1,3 204 11 1017
32 San Fernando 09-05-2026 07:45 7,9 89 0 0 277 5 1017
31 San Fernando 09-05-2026 07:30 8 89 0 0,9 251 0 1017,1
30 San Fernando 09-05-2026 07:15 8,1 89 0 0,4 209 0 1016,8
29 San Fernando 09-05-2026 07:00 8,2 90 0 0 220 0 1017
28 San Fernando 09-05-2026 06:45 8,3 90 0 1,3 232 0 1017
27 San Fernando 09-05-2026 06:30 8,6 90 0 0,4 299 0 1017,1
26 San Fernando 09-05-2026 06:15 8,6 90 0 0,4 299 0 1017,1
25 San Fernando 09-05-2026 06:00 8,7 90 0 0,4 222 0 1017,1
24 San Fernando 09-05-2026 05:45 8,8 90 0 1,3 192 0 1017
23 San Fernando 09-05-2026 05:30 8,8 91 0 0 243 0 1016,9
22 San Fernando 09-05-2026 05:15 8,8 92 0 0,4 296 0 1016,9
21 San Fernando 09-05-2026 05:00 8,9 92 0 0,4 255 0 1016,9
20 San Fernando 09-05-2026 04:45 9 92 0 0,9 255 0 1017
19 San Fernando 09-05-2026 04:30 9 92 0 0,4 220 0 1017,2
18 San Fernando 09-05-2026 04:15 9,1 92 0 0 239 0 1017,2
17 San Fernando 09-05-2026 04:00 9,3 91 0 1,3 256 0 1017,3
16 San Fernando 09-05-2026 03:45 9,3 91 0 0,9 199 0 1017,4
15 San Fernando 09-05-2026 03:30 9,4 91 0 1,3 204 0 1017,5
14 San Fernando 09-05-2026 03:15 9,5 91 0 1,3 253 0 1017,7
13 San Fernando 09-05-2026 03:00 9,6 91 0 0,4 204 0 1017,6
12 San Fernando 09-05-2026 02:45 9,6 91 0 0,9 239 0 1017,6
11 San Fernando 09-05-2026 02:30 9,6 91 0 1,8 199 0 1017,8
10 San Fernando 09-05-2026 02:15 9,7 91 0 1,8 243 0 1018
9 San Fernando 09-05-2026 02:00 9,7 91 0 0,9 242 0 1018,2
8 San Fernando 09-05-2026 01:45 9,7 91 0 1,3 239 0 1018,2
7 San Fernando 09-05-2026 01:30 9,6 92 0 0,9 283 0 1018,1
6 San Fernando 09-05-2026 01:15 9,7 91 0 1,3 269 0 1018,1
5 San Fernando 09-05-2026 01:00 9,7 92 0 0,9 195 0 1018
4 San Fernando 09-05-2026 00:45 9,7 92 0 0,9 209 0 1018,1
3 San Fernando 09-05-2026 00:30 9,7 92 0 0,9 204 0 1018
2 San Fernando 09-05-2026 00:15 9,8 91 0 1,3 192 0 1017,9
1 San Fernando 09-05-2026 00:00 9,9 91 0 2,2 214 0 1018,1